Time;durP1;ratioP1;P1;durP2;ratioP2;P2;SDS_P1;SDS_P2;PMS_P1;PMS_P2;Temp;Humidity;BMP_temperature;BMP_pressure;BME280_temperature;BME280_humidity;BME280_pressure;Samples;Min_cycle;Max_cycle;Signal;HPM_P1;HPM_P2
2022/07/31 00:02:04;;;;;;;;;;;;;;;19.52;78.35;99332.37;1679371;85;21747;-71
2022/07/31 00:04:31;;;;;;;;;;;;;;;19.49;78.82;99337.86;1679101;85;20086;-71
2022/07/31 00:06:57;;;;;;;;;;;;;;;19.47;78.93;99331.28;1679208;85;20086;-71
2022/07/31 00:09:25;;;;;;;;;;;;;;;19.43;79.16;99329.05;1679101;85;20433;-71
2022/07/31 00:11:51;;;;;;;;;;;;;;;19.40;79.54;99327.03;1679196;85;20146;-70
2022/07/31 00:14:18;;;;;;;;;;;;;;;19.37;79.80;99321.63;1679107;85;21119;-71
2022/07/31 00:16:44;;;;;;;;;;;;;;;19.33;79.88;99326.35;1679183;85;20409;-71
2022/07/31 00:19:10;;;;;;;;;;;;;;;19.33;80.23;99321.38;1679096;85;20098;-71
2022/07/31 00:21:36;;;;;;;;;;;;;;;19.30;80.35;99321.55;1679163;85;20606;-70
2022/07/31 00:24:03;;;;;;;;;;;;;;;19.25;80.65;99312.14;1679437;85;20169;-71
2022/07/31 00:26:30;;;;;;;;;;;;;;;19.24;80.89;99311.12;1679154;85;21137;-70
2022/07/31 00:28:56;;;;;;;;;;;;;;;19.23;81.04;99313.70;1679045;85;20441;-71
2022/07/31 00:31:23;;;;;;;;;;;;;;;19.20;81.18;99318.62;1679370;85;20153;-70
2022/07/31 00:33:49;;;;;;;;;;;;;;;19.18;81.30;99312.05;1679255;85;20118;-70
2022/07/31 00:36:16;;;;;;;;;;;;;;;19.16;81.52;99312.22;1679170;85;20146;-70
2022/07/31 00:38:42;;;;;;;;;;;;;;;19.12;81.68;99307.41;1679228;85;21174;-70
2022/07/31 00:41:09;;;;;;;;;;;;;;;19.11;81.87;99310.57;1679318;85;20101;-70
2022/07/31 00:43:35;;;;;;;;;;;;;;;19.10;81.95;99316.72;1679160;85;20496;-71
2022/07/31 00:46:01;;;;;;;;;;;;;;;19.08;81.98;99306.56;1679515;85;20118;-71
2022/07/31 00:48:28;;;;;;;;;;;;;;;19.07;82.14;99301.38;1679166;85;20099;-70
2022/07/31 00:50:55;;;;;;;;;;;;;;;19.06;82.31;99310.31;1679125;85;21120;-70
2022/07/31 00:53:21;;;;;;;;;;;;;;;19.07;82.41;99304.95;1679347;85;20085;-71
2022/07/31 00:55:47;;;;;;;;;;;;;;;19.08;82.48;99302.39;1679305;85;20086;-71
2022/07/31 00:58:14;;;;;;;;;;;;;;;19.07;82.48;99299.98;1679111;85;20129;-70
2022/07/31 01:00:40;;;;;;;;;;;;;;;19.06;82.52;99299.80;1679291;85;20094;-70
2022/07/31 01:03:07;;;;;;;;;;;;;;;19.07;82.62;99295.22;1679405;85;21757;-70
2022/07/31 01:05:33;;;;;;;;;;;;;;;19.07;82.63;99297.20;1679051;85;20094;-70
2022/07/31 01:08:00;;;;;;;;;;;;;;;19.05;82.58;99297.61;1679134;85;20085;-70
2022/07/31 01:10:32;;;;;;;;;;;;;;;19.02;82.72;99298.37;1679221;85;20122;-71
2022/07/31 01:13:01;;;;;;;;;;;;;;;18.99;82.79;99288.00;1663463;85;20074;-70
2022/07/31 01:15:29;;;;;;;;;;;;;;;18.98;82.93;99290.56;1658229;85;21162;-70
2022/07/31 01:17:55;;;;;;;;;;;;;;;18.97;83.05;99291.75;1679059;85;20094;-70
2022/07/31 01:20:22;;;;;;;;;;;;;;;18.95;83.18;99289.93;1679129;85;20107;-70
2022/07/31 01:23:11;;;;;;;;;;;;;;;18.93;83.34;99291.48;1679338;85;20114;-70
2022/07/31 01:26:04;;;;;;;;;;;;;;;18.91;83.59;99305.77;1679157;85;20098;-70
2022/07/31 01:29:00;;;;;;;;;;;;;;;18.90;83.53;99300.00;1679166;85;21176;-70
2022/07/31 01:31:30;;;;;;;;;;;;;;;18.88;83.65;99308.50;1679139;85;20437;-71
2022/07/31 01:34:08;;;;;;;;;;;;;;;18.87;83.65;99299.95;1679410;85;20170;-70
2022/07/31 01:36:36;;;;;;;;;;;;;;;18.85;83.74;99299.52;1671168;85;20098;-70
2022/07/31 01:39:03;;;;;;;;;;;;;;;18.82;83.86;99306.64;1679509;85;20137;-70
2022/07/31 01:41:33;;;;;;;;;;;;;;;18.82;83.89;99304.45;1679243;85;21127;-70
2022/07/31 01:44:00;;;;;;;;;;;;;;;18.79;83.90;99308.19;1678381;85;20149;-70
2022/07/31 01:46:27;;;;;;;;;;;;;;;18.78;84.06;99305.79;1679662;85;20078;-70
2022/07/31 01:48:55;;;;;;;;;;;;;;;18.75;84.12;99299.59;1679034;85;39060;-70
2022/07/31 01:51:22;;;;;;;;;;;;;;;18.72;84.27;99306.70;1679293;85;20150;-70
2022/07/31 01:53:49;;;;;;;;;;;;;;;18.69;84.37;99301.09;1679282;85;21134;-70
2022/07/31 01:56:17;;;;;;;;;;;;;;;18.68;84.49;99303.66;1679039;85;20087;-71
2022/07/31 01:58:44;;;;;;;;;;;;;;;18.66;84.57;99306.81;1679103;85;20161;-70
2022/07/31 02:01:25;;;;;;;;;;;;;;;18.65;84.73;99298.84;1659831;85;20610;-70
2022/07/31 02:03:52;;;;;;;;;;;;;;;18.62;84.79;99301.79;1679022;85;20433;-70
2022/07/31 02:06:19;;;;;;;;;;;;;;;18.61;84.99;99300.77;1679244;85;21110;-70
2022/07/31 02:08:47;;;;;;;;;;;;;;;18.59;85.05;99301.12;1678909;85;20082;-71
2022/07/31 02:11:15;;;;;;;;;;;;;;;18.59;85.03;99301.70;1679074;85;20141;-70
2022/07/31 02:13:43;;;;;;;;;;;;;;;18.57;85.00;99302.67;1679033;85;20425;-70
2022/07/31 02:16:10;;;;;;;;;;;;;;;18.57;85.02;99304.86;1679000;85;20098;-70
2022/07/31 02:18:36;;;;;;;;;;;;;;;18.55;85.04;99308.60;1679032;85;21804;-70
2022/07/31 02:21:11;;;;;;;;;;;;;;;18.55;84.94;99309.99;1678603;85;20170;-71
2022/07/31 02:23:37;;;;;;;;;;;;;;;18.53;85.03;99309.56;1679025;85;20126;-70
2022/07/31 02:26:05;;;;;;;;;;;;;;;18.51;84.98;99305.55;1679273;85;20086;-70
2022/07/31 02:28:34;;;;;;;;;;;;;;;18.47;85.00;99311.89;1678999;85;20135;-70
2022/07/31 02:31:01;;;;;;;;;;;;;;;18.45;85.19;99305.91;1678990;85;21137;-71
2022/07/31 02:33:30;;;;;;;;;;;;;;;18.42;85.42;99306.66;1680701;85;20155;-71
2022/07/31 02:35:56;;;;;;;;;;;;;;;18.39;85.53;99309.38;1678931;85;20074;-71
2022/07/31 02:38:25;;;;;;;;;;;;;;;18.36;85.72;99308.73;1679281;85;20115;-71
2022/07/31 02:40:55;;;;;;;;;;;;;;;18.33;85.88;99310.28;1679024;85;20517;-71
2022/07/31 02:43:22;;;;;;;;;;;;;;;18.30;86.02;99311.02;1678998;85;21155;-70
2022/07/31 02:45:49;;;;;;;;;;;;;;;18.28;86.31;99314.77;1678911;85;20122;-70
2022/07/31 02:48:16;;;;;;;;;;;;;;;18.26;86.46;99312.95;1678913;85;20456;-71
2022/07/31 02:50:44;;;;;;;;;;;;;;;18.25;86.57;99314.70;1678968;85;20829;-70
2022/07/31 02:53:10;;;;;;;;;;;;;;;18.24;86.72;99315.87;1679304;85;20121;-71
2022/07/31 02:55:37;;;;;;;;;;;;;;;18.24;86.75;99313.91;1679052;85;21845;-70
2022/07/31 02:58:04;;;;;;;;;;;;;;;18.24;87.04;99315.87;1679199;85;20114;-70
2022/07/31 03:00:31;;;;;;;;;;;;;;;18.22;87.13;99313.47;1679281;85;20114;-70
2022/07/31 03:02:58;;;;;;;;;;;;;;;18.20;87.24;99306.09;1679133;85;20086;-71
2022/07/31 03:05:25;;;;;;;;;;;;;;;18.19;87.32;99305.88;1679331;84;20122;-71
2022/07/31 03:07:51;;;;;;;;;;;;;;;18.19;87.59;99305.88;1679509;85;21066;-70
2022/07/31 03:10:21;;;;;;;;;;;;;;;18.20;87.41;99306.69;1679198;85;20230;-71
2022/07/31 03:13:04;;;;;;;;;;;;;;;18.23;87.55;99309.52;1679244;84;20119;-71
2022/07/31 03:15:31;;;;;;;;;;;;;;;18.26;87.08;99297.66;1657934;85;20511;-71
2022/07/31 03:17:57;;;;;;;;;;;;;;;18.30;86.94;99301.30;1679315;85;20438;-71
2022/07/31 03:20:26;;;;;;;;;;;;;;;18.35;86.95;99302.96;1677447;85;21175;-71
2022/07/31 03:22:52;;;;;;;;;;;;;;;18.41;86.77;99299.49;1679464;85;20087;-71
2022/07/31 03:25:19;;;;;;;;;;;;;;;18.49;86.40;99294.81;1679232;85;20122;-71
2022/07/31 03:27:46;;;;;;;;;;;;;;;18.56;86.10;99295.50;1679280;85;20424;-71
2022/07/31 03:30:23;;;;;;;;;;;;;;;18.62;85.11;99287.89;1679407;85;20137;-71
2022/07/31 03:32:45;;;;;;;;;;;;;;;18.68;84.46;99288.36;1679008;85;21186;-72
2022/07/31 03:35:12;;;;;;;;;;;;;;;18.76;84.01;99290.07;1679138;85;20102;-71
2022/07/31 03:37:39;;;;;;;;;;;;;;;18.83;83.20;99283.80;1679217;85;20436;-70
2022/07/31 03:40:08;;;;;;;;;;;;;;;18.91;82.85;99284.11;1679160;85;20098;-72
2022/07/31 03:42:34;;;;;;;;;;;;;;;18.99;82.44;99293.56;1679395;85;20090;-72
2022/07/31 03:45:02;;;;;;;;;;;;;;;19.04;81.64;99290.45;1679179;85;21102;-70
2022/07/31 03:47:29;;;;;;;;;;;;;;;19.09;80.68;99281.73;1679106;85;20122;-70
2022/07/31 03:49:55;;;;;;;;;;;;;;;19.17;80.76;99295.14;1679217;85;20118;-70
2022/07/31 03:52:22;;;;;;;;;;;;;;;19.25;80.38;99301.01;1679395;85;20375;-70
2022/07/31 03:54:48;;;;;;;;;;;;;;;19.37;80.28;99292.99;1679195;85;20448;-70
2022/07/31 03:57:16;;;;;;;;;;;;;;;19.50;78.93;99289.36;1678604;85;21748;-71
2022/07/31 03:59:43;;;;;;;;;;;;;;;19.61;78.36;99293.09;1678760;85;20162;-71
2022/07/31 04:02:09;;;;;;;;;;;;;;;19.74;77.79;99292.40;1678956;85;20110;-72
2022/07/31 04:04:41;;;;;;;;;;;;;;;19.90;75.82;99292.75;1679146;85;20130;-72
2022/07/31 04:07:08;;;;;;;;;;;;;;;20.04;74.79;99292.87;1680757;85;20102;-72
2022/07/31 04:09:37;;;;;;;;;;;;;;;20.19;73.72;99286.83;1678891;85;21097;-72
2022/07/31 04:12:05;;;;;;;;;;;;;;;20.35;73.33;99281.75;1678867;85;20111;-72
2022/07/31 04:14:31;;;;;;;;;;;;;;;20.49;71.38;99288.84;1678967;85;20094;-72
2022/07/31 04:16:58;;;;;;;;;;;;;;;20.56;71.26;99287.50;1678944;85;20461;-72
2022/07/31 04:19:29;;;;;;;;;;;;;;;20.63;70.45;99290.92;1678924;85;20090;-72
2022/07/31 04:21:54;;;;;;;;;;;;;;;20.66;70.29;99288.16;1678968;85;21148;-72
2022/07/31 04:24:20;;;;;;;;;;;;;;;20.69;69.29;99297.14;1678850;85;20425;-72
2022/07/31 04:26:53;;;;;;;;;;;;;;;20.69;67.89;99299.14;1679100;85;20098;-72
2022/07/31 04:29:19;;;;;;;;;;;;;;;20.69;67.50;99295.75;1681012;85;20557;-72
2022/07/31 04:31:46;;;;;;;;;;;;;;;20.70;66.59;99300.73;1679100;85;20118;-72
2022/07/31 04:34:14;;;;;;;;;;;;;;;20.68;67.01;99300.33;1678963;85;21095;-71
2022/07/31 04:36:40;;;;;;;;;;;;;;;20.69;67.02;99297.74;1679077;85;20098;-72
2022/07/31 04:39:07;;;;;;;;;;;;;;;20.69;66.83;99296.34;1678866;85;20417;-72
2022/07/31 04:41:33;;;;;;;;;;;;;;;20.69;66.84;99297.74;1678917;85;20137;-71
2022/07/31 04:44:00;;;;;;;;;;;;;;;20.68;67.54;99296.94;1678940;85;20150;-71
2022/07/31 04:46:28;;;;;;;;;;;;;;;20.69;66.50;99297.14;1679279;85;21518;-71
2022/07/31 04:48:55;;;;;;;;;;;;;;;20.74;67.12;99296.78;1678807;85;20445;-71
2022/07/31 04:51:23;;;;;;;;;;;;;;;20.85;67.40;99298.20;1678923;85;20462;-72
2022/07/31 04:53:51;;;;;;;;;;;;;;;20.97;67.18;99293.68;1678870;85;20086;-71
2022/07/31 04:59:07;;;;;;;;;;;;;;;21.24;65.71;99296.22;1678889;85;21079;-71
2022/07/31 05:01:35;;;;;;;;;;;;;;;21.37;63.85;99296.07;1678893;85;20425;-72
2022/07/31 05:04:01;;;;;;;;;;;;;;;21.45;63.35;99292.67;1678831;85;20102;-71
2022/07/31 05:06:40;;;;;;;;;;;;;;;21.53;62.03;99297.89;1680680;85;20622;-71
2022/07/31 05:09:08;;;;;;;;;;;;;;;21.61;61.42;99298.70;1679179;85;20122;-71
2022/07/31 05:11:34;;;;;;;;;;;;;;;21.69;60.11;99294.13;1678883;85;21767;-72
2022/07/31 05:14:01;;;;;;;;;;;;;;;21.78;60.26;99284.57;1679025;85;20122;-72
2022/07/31 05:16:29;;;;;;;;;;;;;;;21.85;59.35;99292.97;1678860;85;20098;-72
2022/07/31 05:18:57;;;;;;;;;;;;;;;21.86;58.44;99293.16;1678901;85;20445;-72
2022/07/31 05:21:37;;;;;;;;;;;;;;;21.87;58.53;99291.97;1652689;85;20433;-71
2022/07/31 05:24:14;;;;;;;;;;;;;;;21.95;58.71;99285.95;1665565;85;21247;-71
2022/07/31 05:26:45;;;;;;;;;;;;;;;22.12;58.62;99286.39;1678821;85;20130;-71
2022/07/31 05:29:12;;;;;;;;;;;;;;;22.28;57.45;99289.59;1678910;85;20090;-71
2022/07/31 05:31:38;;;;;;;;;;;;;;;22.43;56.17;99282.79;1678749;85;20153;-71
2022/07/31 05:34:05;;;;;;;;;;;;;;;22.54;54.53;99279.95;1673402;84;20150;-71
2022/07/31 05:36:32;;;;;;;;;;;;;;;22.64;55.00;99284.72;1660411;85;21545;-71
2022/07/31 05:38:59;;;;;;;;;;;;;;;22.73;54.88;99288.70;1653932;87;20472;-71
2022/07/31 05:41:32;;;;;;;;;;;;;;;22.82;53.23;99286.11;1652235;86;20188;-71
2022/07/31 05:44:03;;;;;;;;;;;;;;;22.88;52.93;99283.89;1651864;86;20429;-71
2022/07/31 05:46:32;;;;;;;;;;;;;;;22.96;52.69;99281.27;1653959;86;20088;-69
2022/07/31 05:49:00;;;;;;;;;;;;;;;23.07;53.62;99286.83;1653719;87;21092;-72
2022/07/31 05:51:26;;;;;;;;;;;;;;;23.18;53.25;99286.75;1653671;87;20089;-72
2022/07/31 05:53:52;;;;;;;;;;;;;;;23.26;51.38;99284.92;1655982;85;20142;-72
2022/07/31 05:56:37;;;;;;;;;;;;;;;23.35;51.43;99281.68;1665714;85;20126;-73
2022/07/31 05:59:03;;;;;;;;;;;;;;;23.47;52.26;99274.21;1697239;83;20142;-72
2022/07/31 06:01:30;;;;;;;;;;;;;;;23.55;50.45;99277.20;1701356;84;21063;-73
2022/07/31 06:03:57;;;;;;;;;;;;;;;23.64;51.09;99284.55;1687682;84;20431;-73
2022/07/31 06:06:29;;;;;;;;;;;;;;;23.70;49.50;99280.68;1677197;84;20122;-72
2022/07/31 06:08:55;;;;;;;;;;;;;;;23.74;49.54;99277.25;1701435;84;20074;-72
2022/07/31 06:11:22;;;;;;;;;;;;;;;23.77;49.55;99278.44;1710922;83;20092;-73
2022/07/31 06:13:48;;;;;;;;;;;;;;;23.82;50.00;99276.59;1720954;83;21092;-72
2022/07/31 06:16:19;;;;;;;;;;;;;;;23.88;48.59;99284.77;1714210;83;20462;-74
2022/07/31 06:18:46;;;;;;;;;;;;;;;23.96;48.29;99279.30;1711409;83;20098;-72
2022/07/31 06:21:12;;;;;;;;;;;;;;;23.95;47.00;99277.09;1701448;84;20086;-73
2022/07/31 06:23:39;;;;;;;;;;;;;;;23.92;48.42;99270.12;1701761;83;20102;-71
2022/07/31 06:26:07;;;;;;;;;;;;;;;23.96;48.33;99268.09;1700459;84;21167;-74
2022/07/31 06:28:33;;;;;;;;;;;;;;;24.05;48.01;99269.81;1701023;84;20827;-74
2022/07/31 06:31:00;;;;;;;;;;;;;;;24.11;47.19;99265.36;1701259;84;20142;-77
2022/07/31 06:33:26;;;;;;;;;;;;;;;24.13;47.06;99267.14;1701430;84;20175;-77
2022/07/31 06:35:53;;;;;;;;;;;;;;;24.17;47.12;99258.09;1701607;84;20098;-83
2022/07/31 06:38:29;;;;;;;;;;;;;;;24.21;46.79;99260.27;1682650;83;21104;-82
2022/07/31 06:41:43;;;;;;;;;;;;;;;24.32;45.58;99260.17;1701499;84;20165;-81
2022/07/31 06:43:44;;;;;;;;;;;;;;;24.40;45.24;99247.67;1694811;84;20162;-78
2022/07/31 06:46:29;;;;;;;;;;;;;;;24.47;45.81;99256.02;1703956;83;20130;-78
2022/07/31 06:49:15;;;;;;;;;;;;;;;24.58;45.76;99247.48;1707065;82;20086;-77
2022/07/31 06:51:41;;;;;;;;;;;;;;;24.71;45.05;99249.95;1701509;84;21175;-75
2022/07/31 06:54:08;;;;;;;;;;;;;;;24.80;44.96;99243.23;1701340;84;20441;-74
2022/07/31 06:56:35;;;;;;;;;;;;;;;24.87;45.01;99238.91;1701218;83;20121;-74
2022/07/31 06:59:02;;;;;;;;;;;;;;;24.99;44.70;99236.98;1701219;83;20419;-75
2022/07/31 07:01:29;;;;;;;;;;;;;;;25.09;43.84;99237.27;1701543;83;20090;-76
2022/07/31 07:03:56;;;;;;;;;;;;;;;25.19;43.86;99231.52;1701510;84;21075;-75
2022/07/31 07:06:25;;;;;;;;;;;;;;;25.28;43.10;99229.59;1701469;83;20126;-75
2022/07/31 07:08:51;;;;;;;;;;;;;;;25.39;42.64;99225.23;1692310;83;20086;-73
2022/07/31 07:11:20;;;;;;;;;;;;;;;25.45;42.48;99225.71;1672985;85;20093;-73
2022/07/31 07:13:46;;;;;;;;;;;;;;;25.49;42.54;99222.85;1673084;86;20483;-73
2022/07/31 07:16:14;;;;;;;;;;;;;;;25.53;42.35;99218.77;1672957;86;21126;-75
2022/07/31 07:18:44;;;;;;;;;;;;;;;25.60;42.80;99215.85;1672906;86;20108;-78
2022/07/31 07:21:11;;;;;;;;;;;;;;;25.68;42.19;99220.78;1673152;85;20120;-76
2022/07/31 07:23:39;;;;;;;;;;;;;;;25.78;42.97;99216.22;1673044;85;20227;-79
2022/07/31 07:26:07;;;;;;;;;;;;;;;25.84;42.50;99230.77;1671365;85;20155;-73
2022/07/31 07:28:34;;;;;;;;;;;;;;;25.94;42.64;99227.59;1673000;86;21191;-75
2022/07/31 07:31:02;;;;;;;;;;;;;;;26.05;42.86;99222.56;1672931;86;20120;-74
2022/07/31 07:33:30;;;;;;;;;;;;;;;26.18;41.95;99222.75;1673105;85;20460;-74
2022/07/31 07:35:56;;;;;;;;;;;;;;;26.28;42.31;99223.97;1672988;85;20136;-73
2022/07/31 07:38:23;;;;;;;;;;;;;;;26.42;41.63;99223.55;1673314;85;20112;-74
2022/07/31 07:40:50;;;;;;;;;;;;;;;26.52;41.96;99221.95;1672874;85;21549;-74
2022/07/31 07:43:17;;;;;;;;;;;;;;;26.65;41.31;99222.87;1673130;85;20424;-77
2022/07/31 07:45:44;;;;;;;;;;;;;;;26.78;41.66;99216.59;1672949;86;20160;-77
2022/07/31 07:48:10;;;;;;;;;;;;;;;26.94;41.45;99218.08;1673197;85;20088;-76
2022/07/31 07:50:42;;;;;;;;;;;;;;;27.05;40.15;99220.70;1669945;85;20145;-75
2022/07/31 07:53:11;;;;;;;;;;;;;;;27.04;39.75;99217.09;1666459;85;21139;-77
2022/07/31 07:55:57;;;;;;;;;;;;;;;27.11;39.83;99216.14;1673041;86;20474;-75
2022/07/31 07:58:43;;;;;;;;;;;;;;;27.18;40.21;99219.57;1687382;83;20099;-77
2022/07/31 08:01:28;;;;;;;;;;;;;;;27.15;39.54;99213.39;1727375;83;20716;-80
2022/07/31 08:03:56;;;;;;;;;;;;;;;27.26;41.21;99205.50;1734655;82;20207;-76
2022/07/31 08:06:22;;;;;;;;;;;;;;;27.45;39.75;99206.69;1734021;83;21569;-77
2022/07/31 08:08:49;;;;;;;;;;;;;;;27.54;40.01;99200.45;1706947;83;20126;-75
2022/07/31 08:11:23;;;;;;;;;;;;;;;27.66;39.85;99207.45;1651603;84;20147;-74
2022/07/31 08:14:04;;;;;;;;;;;;;;;27.90;38.28;99205.41;1689067;85;20643;-75
2022/07/31 08:16:52;;;;;;;;;;;;;;;28.11;37.07;99200.46;1690481;85;20087;-74
2022/07/31 08:19:19;;;;;;;;;;;;;;;28.32;38.05;99201.93;1689741;84;21161;-74
2022/07/31 08:21:47;;;;;;;;;;;;;;;28.48;36.04;99201.89;1725974;82;20075;-73
2022/07/31 08:24:15;;;;;;;;;;;;;;;28.53;35.85;99198.53;1719325;83;20440;-75
2022/07/31 08:29:34;;;;;;;;;;;;;;;28.65;37.28;99194.96;1724952;83;20417;-76
2022/07/31 08:32:05;;;;;;;;;;;;;;;28.90;36.55;99181.53;1726455;82;21158;-71
2022/07/31 08:34:50;;;;;;;;;;;;;;;29.05;35.63;99191.17;1734324;82;20070;-76
2022/07/31 08:37:19;;;;;;;;;;;;;;;29.06;34.86;99181.45;1724968;83;20097;-72
2022/07/31 08:39:47;;;;;;;;;;;;;;;29.14;35.53;99178.58;1719378;83;20158;-72
2022/07/31 08:42:13;;;;;;;;;;;;;;;29.31;35.51;99175.04;1719276;82;20157;-74
2022/07/31 08:44:41;;;;;;;;;;;;;;;29.46;35.84;99180.41;1719094;83;21030;-72
2022/07/31 08:47:11;;;;;;;;;;;;;;;29.63;34.68;99177.47;1720569;82;20510;-76
2022/07/31 08:49:43;;;;;;;;;;;;;;;29.70;35.49;99172.38;1702823;83;20099;-72
2022/07/31 08:52:11;;;;;;;;;;;;;;;29.84;35.50;99167.66;1690031;84;20087;-74
2022/07/31 08:54:57;;;;;;;;;;;;;;;29.98;34.23;99169.22;1666789;85;20103;-73
2022/07/31 08:57:25;;;;;;;;;;;;;;;30.09;35.34;99168.22;1690143;85;21101;-72
2022/07/31 08:59:53;;;;;;;;;;;;;;;30.25;33.04;99165.86;1676080;85;20415;-75
2022/07/31 09:02:19;;;;;;;;;;;;;;;30.39;33.97;99164.56;1672808;86;20183;-77
2022/07/31 09:04:57;;;;;;;;;;;;;;;30.70;33.76;99164.64;1669856;85;20104;-70
2022/07/31 09:07:24;;;;;;;;;;;;;;;31.03;33.74;99154.46;1672800;86;20112;-73
2022/07/31 09:09:52;;;;;;;;;;;;;;;31.18;32.70;99156.94;1672800;85;20139;-72
2022/07/31 09:12:29;;;;;;;;;;;;;;;31.22;32.26;99155.34;1672861;86;20116;-72
2022/07/31 09:14:57;;;;;;;;;;;;;;;31.18;32.07;99158.35;1671941;85;20125;-74
2022/07/31 09:17:32;;;;;;;;;;;;;;;31.21;30.24;99160.86;1673129;86;20636;-75
2022/07/31 09:19:59;;;;;;;;;;;;;;;31.18;31.08;99148.43;1672570;85;20168;-76
2022/07/31 09:22:29;;;;;;;;;;;;;;;31.27;30.94;99156.79;1698754;83;21142;-75
2022/07/31 09:25:10;;;;;;;;;;;;;;;31.22;31.46;99139.75;1677676;84;20124;-78
2022/07/31 09:27:38;;;;;;;;;;;;;;;31.17;30.95;99148.27;1672918;86;20168;-70
2022/07/31 09:30:06;;;;;;;;;;;;;;;31.02;30.68;99146.42;1672486;85;20124;-72
2022/07/31 09:32:37;;;;;;;;;;;;;;;30.94;31.79;99146.53;1669719;84;20162;-72
2022/07/31 09:35:14;;;;;;;;;;;;;;;30.88;30.97;99137.22;1700499;84;21145;-73
2022/07/31 09:37:40;;;;;;;;;;;;;;;30.86;32.01;99138.94;1701302;83;20098;-72
2022/07/31 09:40:34;;;;;;;;;;;;;;;30.98;31.41;99143.73;1701167;84;20126;-71
2022/07/31 09:43:09;;;;;;;;;;;;;;;31.12;30.53;99132.46;1690392;84;20154;-75
2022/07/31 09:45:35;;;;;;;;;;;;;;;31.06;30.00;99131.48;1691025;83;20462;-71
2022/07/31 09:48:04;;;;;;;;;;;;;;;30.98;29.95;99133.02;1684051;84;21153;-75
2022/07/31 09:50:32;;;;;;;;;;;;;;;30.91;30.68;99130.45;1713971;83;20119;-75
2022/07/31 09:52:59;;;;;;;;;;;;;;;30.91;30.39;99137.55;1720491;83;20138;-74
2022/07/31 09:55:26;;;;;;;;;;;;;;;30.98;30.72;99143.73;1720272;83;20108;-73
2022/07/31 09:57:56;;;;;;;;;;;;;;;30.97;30.48;99135.06;1720554;83;20470;-74
2022/07/31 10:00:23;;;;;;;;;;;;;;;31.03;31.58;99129.58;1725255;82;21136;-74
2022/07/31 10:02:51;;;;;;;;;;;;;;;31.20;30.91;99128.88;1726311;83;20162;-77
2022/07/31 10:05:19;;;;;;;;;;;;;;;31.34;30.24;99130.98;1726125;83;20112;-72
2022/07/31 10:07:46;;;;;;;;;;;;;;;31.50;30.28;99115.13;1726097;83;20080;-78
2022/07/31 10:10:14;;;;;;;;;;;;;;;31.68;30.22;99118.67;1726736;82;20122;-73
2022/07/31 10:12:53;;;;;;;;;;;;;;;31.83;29.26;99123.25;1725730;82;21821;-73
2022/07/31 10:15:20;;;;;;;;;;;;;;;32.03;28.45;99117.75;1726133;83;20119;-74
2022/07/31 10:17:49;;;;;;;;;;;;;;;32.25;29.48;99111.33;1727063;82;20143;-72
2022/07/31 10:20:20;;;;;;;;;;;;;;;32.41;28.83;99122.97;1727984;82;20151;-72
2022/07/31 10:23:10;;;;;;;;;;;;;;;32.39;28.06;99121.23;1726197;83;20150;-71
2022/07/31 10:25:38;;;;;;;;;;;;;;;32.20;27.84;99119.66;1724149;82;21793;-73
2022/07/31 10:28:05;;;;;;;;;;;;;;;32.07;28.37;99110.66;1726511;82;20091;-71
2022/07/31 10:30:35;;;;;;;;;;;;;;;32.11;28.71;99112.71;1725942;81;20492;-72
2022/07/31 10:33:04;;;;;;;;;;;;;;;32.18;27.91;99099.62;1740045;82;20598;-72
2022/07/31 10:35:42;;;;;;;;;;;;;;;32.26;28.50;99105.02;1708239;82;20083;-72
2022/07/31 10:38:26;;;;;;;;;;;;;;;32.44;28.95;99102.92;1725460;82;21257;-75
2022/07/31 10:41:04;;;;;;;;;;;;;;;32.61;27.91;99100.53;1726905;82;20468;-74
2022/07/31 10:43:52;;;;;;;;;;;;;;;32.65;28.70;99101.15;1725956;83;20406;-72
2022/07/31 10:46:31;;;;;;;;;;;;;;;32.74;28.03;99096.87;1727387;82;20139;-75
2022/07/31 10:49:17;;;;;;;;;;;;;;;32.87;27.29;99085.34;1660861;86;20088;-75
2022/07/31 10:52:05;;;;;;;;;;;;;;;32.93;26.97;99088.32;1659200;84;21124;-71
2022/07/31 10:54:51;;;;;;;;;;;;;;;32.82;27.64;99083.14;1660059;85;20156;-72
2022/07/31 10:57:42;;;;;;;;;;;;;;;32.85;26.81;99080.77;1621056;88;20153;-72
2022/07/31 11:00:28;;;;;;;;;;;;;;;32.84;26.88;99079.82;1615856;88;20417;-77
2022/07/31 11:03:02;;;;;;;;;;;;;;;32.75;27.74;99078.58;1612140;88;20238;-74
2022/07/31 11:05:30;;;;;;;;;;;;;;;32.91;27.24;99073.80;1635928;87;21180;-76
2022/07/31 11:08:07;;;;;;;;;;;;;;;33.11;27.49;99065.47;1636798;87;20104;-75
2022/07/31 11:10:52;;;;;;;;;;;;;;;33.37;27.25;99065.85;1637305;87;20160;-73
2022/07/31 11:13:22;;;;;;;;;;;;;;;33.77;26.89;99063.98;1646798;86;20713;-73
2022/07/31 11:16:04;;;;;;;;;;;;;;;33.84;24.42;99060.80;1635205;87;20176;-71
2022/07/31 11:18:38;;;;;;;;;;;;;;;33.59;24.69;99061.27;1629235;87;21111;-76
2022/07/31 11:21:04;;;;;;;;;;;;;;;33.24;25.08;99053.25;1634906;87;20410;-74
2022/07/31 11:23:35;;;;;;;;;;;;;;;32.92;26.09;99063.37;1635448;87;20141;-77
2022/07/31 11:26:08;;;;;;;;;;;;;;;32.70;26.49;99052.83;1635539;87;20523;-77
2022/07/31 11:28:37;;;;;;;;;;;;;;;32.66;26.10;99043.69;1635677;87;20139;-74
2022/07/31 11:31:05;;;;;;;;;;;;;;;32.67;26.07;99041.79;1635604;87;21236;-76
2022/07/31 11:33:43;;;;;;;;;;;;;;;32.54;26.08;99051.77;1635444;87;20108;-77
2022/07/31 11:36:16;;;;;;;;;;;;;;;32.39;26.58;99057.32;1635697;87;20103;-74
2022/07/31 11:38:49;;;;;;;;;;;;;;;32.27;27.24;99049.80;1614875;87;20216;-73
2022/07/31 11:41:20;;;;;;;;;;;;;;;32.27;27.86;99048.37;1635458;87;20125;-73
2022/07/31 11:43:49;;;;;;;;;;;;;;;32.33;27.94;99043.00;1635457;87;20148;-73
2022/07/31 11:46:20;;;;;;;;;;;;;;;32.43;27.15;99048.00;1635307;87;20135;-74
2022/07/31 11:48:49;;;;;;;;;;;;;;;32.47;27.38;99045.78;1655870;86;20271;-75
2022/07/31 11:51:20;;;;;;;;;;;;;;;32.54;27.22;99042.61;1662474;86;20094;-78
2022/07/31 11:53:48;;;;;;;;;;;;;;;32.44;26.18;99039.00;1662384;86;20118;-77
2022/07/31 11:56:19;;;;;;;;;;;;;;;32.10;26.72;99041.58;1662355;86;21280;-77
2022/07/31 11:58:48;;;;;;;;;;;;;;;31.82;27.50;99041.42;1660402;86;21042;-74
2022/07/31 12:01:15;;;;;;;;;;;;;;;31.70;27.71;99031.03;1633460;86;20141;-73
2022/07/31 12:03:44;;;;;;;;;;;;;;;31.72;28.18;99037.81;1631531;87;20119;-75
2022/07/31 12:06:15;;;;;;;;;;;;;;;31.76;26.99;99034.82;1659518;85;20096;-75
2022/07/31 12:08:41;;;;;;;;;;;;;;;31.79;27.04;99033.84;1647450;87;21284;-73
2022/07/31 12:11:11;;;;;;;;;;;;;;;31.72;27.84;99031.35;1647854;87;20199;-72
2022/07/31 12:13:39;;;;;;;;;;;;;;;31.65;27.96;99033.83;1647014;87;20413;-73
2022/07/31 12:16:14;;;;;;;;;;;;;;;31.63;27.89;99025.64;1647590;87;20127;-73
2022/07/31 12:19:01;;;;;;;;;;;;;;;31.68;28.11;99017.95;1646878;87;20468;-73
2022/07/31 12:21:39;;;;;;;;;;;;;;;31.84;28.42;99020.45;1647499;87;21629;-72
2022/07/31 12:24:13;;;;;;;;;;;;;;;32.03;28.43;99019.19;1647269;87;20433;-72
2022/07/31 12:26:52;;;;;;;;;;;;;;;32.11;27.98;99014.77;1647386;87;20465;-75
2022/07/31 12:29:19;;;;;;;;;;;;;;;32.03;27.64;99009.25;1646936;87;20164;-73
2022/07/31 12:31:49;;;;;;;;;;;;;;;31.93;27.61;99003.42;1655574;85;20186;-72
2022/07/31 12:34:40;;;;;;;;;;;;;;;31.66;28.27;99001.37;1659744;85;21131;-72
2022/07/31 12:37:15;;;;;;;;;;;;;;;31.42;29.91;98993.30;1632231;86;20118;-72
2022/07/31 12:39:55;;;;;;;;;;;;;;;31.42;29.21;98998.34;1647362;86;20107;-76
2022/07/31 12:42:32;;;;;;;;;;;;;;;31.57;28.38;98997.73;1647097;87;20122;-73
2022/07/31 12:45:01;;;;;;;;;;;;;;;31.70;27.75;98990.68;1665199;85;20087;-73
2022/07/31 12:47:35;;;;;;;;;;;;;;;31.95;28.65;98993.80;1644565;85;21776;-72
2022/07/31 12:50:09;;;;;;;;;;;;;;;32.25;27.91;98998.36;1647534;85;20128;-72
2022/07/31 12:52:38;;;;;;;;;;;;;;;32.21;27.80;98994.87;1662860;85;20496;-72
2022/07/31 12:55:09;;;;;;;;;;;;;;;32.14;29.31;98993.94;1655876;85;20177;-73
2022/07/31 12:57:35;;;;;;;;;;;;;;;32.26;28.01;98982.91;1644978;85;20255;-74
2022/07/31 13:00:05;;;;;;;;;;;;;;;32.36;28.01;98983.00;1639430;86;21184;-73
2022/07/31 13:02:36;;;;;;;;;;;;;;;32.26;28.78;98990.79;1642977;87;20095;-73
2022/07/31 13:05:10;;;;;;;;;;;;;;;31.93;29.19;98980.71;1646142;86;20214;-73
2022/07/31 13:07:39;;;;;;;;;;;;;;;31.84;30.43;98983.55;1646875;87;20681;-72
2022/07/31 13:10:08;;;;;;;;;;;;;;;31.81;29.86;98981.66;1647547;86;20215;-73